Time;durP1;ratioP1;P1;durP2;ratioP2;P2;SDS_P1;SDS_P2;PMS_P1;PMS_P2;Temp;Humidity;BMP_temperature;BMP_pressure;BME280_temperature;BME280_humidity;BME280_pressure;Samples;Min_cycle;Max_cycle;Signal;HPM_P1;HPM_P2
2022/03/26 00:02:46;;;;;;;;;;;11.60;34.40;;;9.90;36.30;102422.50;8292688;28;20012;-84
2022/03/26 00:07:07;;;;;;;;;;;11.60;34.40;;;10.06;35.98;102451.69;8279033;28;20016;-83
2022/03/26 00:11:29;;;;;;;;;;;11.50;34.40;;;9.97;35.97;102443.22;8299180;28;20008;-83
2022/03/26 00:15:51;;;;;;;;;;;11.50;34.50;;;9.94;36.39;102440.69;8287324;28;20385;-83
2022/03/26 00:20:13;;;;;;;;;;;11.40;34.40;;;9.94;35.80;102445.03;8282108;28;20049;-83
2022/03/26 00:24:35;;;;;;;;;;;11.40;34.50;;;9.88;36.03;102445.16;8286104;28;20461;-83
2022/03/26 00:28:57;;;;;;;;;;;11.40;34.50;;;9.69;36.04;102413.47;8293168;28;19928;-84
2022/03/26 00:33:19;;;;;;;;;;;11.30;34.50;;;9.74;36.30;102453.34;8278715;28;19928;-83
2022/03/26 00:37:41;;;;;;;;;;;11.00;34.40;;;9.68;36.29;102456.94;8283403;28;20023;-83
2022/03/26 00:42:03;;;;;;;;;;;11.20;34.50;;;9.48;36.34;102422.66;8289752;28;19917;-83
2022/03/26 00:46:24;;;;;;;;;;;11.10;34.50;;;9.54;36.19;102443.38;8271301;28;20028;-83
2022/03/26 00:50:46;;;;;;;;;;;10.90;34.50;;;9.41;36.53;102434.13;8285986;28;19925;-83
2022/03/26 00:55:08;;;;;;;;;;;11.00;34.60;;;9.22;36.33;102416.28;8293471;28;19921;-83
2022/03/26 00:59:29;;;;;;;;;;;10.80;34.60;;;9.27;36.00;102437.03;8304583;28;20442;-83
2022/03/26 01:03:51;;;;;;;;;;;10.70;34.60;;;8.93;36.29;102379.59;8292288;28;20004;-83
2022/03/26 01:08:13;;;;;;;;;;;10.60;34.60;;;8.90;36.34;102379.66;8303571;28;19996;-83
2022/03/26 01:12:35;;;;;;;;;;;10.70;34.80;;;9.06;36.27;102420.13;8294659;28;19931;-83
2022/03/26 01:16:57;;;;;;;;;;;10.30;34.70;;;9.08;36.32;102423.56;8269523;28;20445;-83
2022/03/26 01:21:19;;;;;;;;;;;10.50;34.80;;;9.04;36.66;102419.28;8293384;28;20441;-83
2022/03/26 01:25:41;;;;;;;;;;;10.50;34.80;;;8.79;36.64;102372.06;8282899;28;20012;-83
2022/03/26 01:30:04;;;;;;;;;;;10.50;34.80;;;9.04;36.57;102424.50;8270330;28;19918;-83
2022/03/26 01:34:27;;;;;;;;;;;10.60;34.90;;;9.04;36.78;102425.34;8260708;28;19925;-83
2022/03/26 01:38:48;;;;;;;;;;;10.50;34.90;;;8.95;36.70;102403.88;8249257;28;20317;-83
2022/03/26 01:43:11;;;;;;;;;;;10.30;34.80;;;8.87;36.58;102404.03;8292280;28;20401;-83
2022/03/26 01:47:32;;;;;;;;;;;10.50;34.90;;;8.94;36.73;102408.22;8264668;28;20388;-83
2022/03/26 01:51:54;;;;;;;;;;;10.40;34.90;;;8.93;36.89;102410.84;8284560;28;20392;-82
2022/03/26 01:56:18;;;;;;;;;;;10.40;34.90;;;8.83;36.52;102400.63;8272833;28;20004;-82
2022/03/26 02:00:40;;;;;;;;;;;10.40;35.00;;;8.66;36.86;102376.66;8259530;28;20004;-82
2022/03/26 02:05:02;;;;;;;;;;;10.40;35.00;;;8.72;36.75;102393.91;8272291;28;20020;-83
2022/03/26 02:09:23;;;;;;;;;;;10.40;35.10;;;8.71;36.76;102385.25;8252565;28;19918;-83
2022/03/26 02:13:55;;;;;;;;;;;10.30;35.10;;;8.66;36.74;102387.09;8262328;28;19928;-83
2022/03/26 02:18:17;;;;;;;;;;;10.30;35.10;;;8.69;36.69;102394.81;8242511;28;19921;-84
2022/03/26 02:22:39;;;;;;;;;;;10.10;35.10;;;8.71;37.02;102394.81;8259028;28;19918;-82
2022/03/26 02:27:05;;;;;;;;;;;10.20;35.10;;;8.57;37.05;102380.31;8252147;28;19924;-83
2022/03/26 02:31:27;;;;;;;;;;;10.20;35.20;;;8.45;37.28;102364.06;8254525;28;20347;-82
2022/03/26 02:35:49;;;;;;;;;;;10.10;35.10;;;8.49;37.06;102371.81;8242563;28;20382;-84
2022/03/26 02:40:11;;;;;;;;;;;10.10;35.20;;;8.44;37.14;102370.19;8249942;28;20361;-83
2022/03/26 02:44:33;;;;;;;;;;;10.10;35.20;;;8.25;37.19;102338.41;8257870;28;20413;-83
2022/03/26 02:48:54;;;;;;;;;;;10.00;35.20;;;8.45;37.37;102384.91;8256487;28;19924;-83
2022/03/26 02:53:16;;;;;;;;;;;10.10;35.30;;;8.38;37.14;102373.75;8241198;28;19925;-82
2022/03/26 02:57:38;;;;;;;;;;;10.00;35.30;;;8.33;37.43;102368.63;8237639;28;20305;-82
2022/03/26 03:01:59;;;;;;;;;;;9.90;35.30;;;8.25;36.98;102354.03;8238974;28;19937;-83
2022/03/26 03:06:21;;;;;;;;;;;10.00;35.30;;;8.19;37.39;102360.22;8245196;28;20004;-82
2022/03/26 03:10:44;;;;;;;;;;;9.70;35.30;;;8.15;37.30;102358.53;8255312;28;19948;-82
2022/03/26 03:15:06;;;;;;;;;;;9.80;35.40;;;8.20;37.34;102372.34;8262877;28;20390;-83
2022/03/26 03:19:28;;;;;;;;;;;9.80;35.40;;;8.23;37.26;102377.47;8261806;28;20469;-82
2022/03/26 03:23:50;;;;;;;;;;;9.80;35.40;;;8.06;37.53;102353.53;8273870;28;20020;-82
2022/03/26 03:28:12;;;;;;;;;;;9.70;35.40;;;8.11;37.56;102362.09;8271265;28;20065;-82
2022/03/26 03:32:33;;;;;;;;;;;9.80;35.50;;;7.98;37.27;102346.72;8281666;28;20008;-82
2022/03/26 03:36:55;;;;;;;;;;;9.70;35.50;;;7.84;37.13;102332.25;8281108;28;20011;-82
2022/03/26 03:41:17;;;;;;;;;;;9.70;35.50;;;7.79;37.48;102319.31;8267495;28;20465;-82
2022/03/26 03:45:39;;;;;;;;;;;9.70;35.60;;;8.02;37.22;102354.44;8267148;28;20020;-82
2022/03/26 03:50:00;;;;;;;;;;;9.60;35.50;;;8.02;37.32;102364.84;8270639;28;19996;-82
2022/03/26 03:54:22;;;;;;;;;;;9.40;35.50;;;8.02;37.77;102375.25;8291470;28;19925;-82
2022/03/26 03:58:44;;;;;;;;;;;9.60;35.60;;;7.95;37.62;102364.97;8271233;28;20015;-82
2022/03/26 04:03:05;;;;;;;;;;;9.60;35.70;;;7.73;37.78;102340.25;8261629;28;20362;-82
2022/03/26 04:07:27;;;;;;;;;;;9.60;35.60;;;7.81;37.70;102353.13;8293135;28;20366;-82
2022/03/26 04:11:49;;;;;;;;;;;9.50;35.60;;;7.79;37.44;102355.72;8277297;28;19933;-82
2022/03/26 04:16:12;;;;;;;;;;;9.50;35.60;;;7.86;37.48;102372.94;8277455;28;19921;-82
2022/03/26 04:20:35;;;;;;;;;;;9.50;35.60;;;7.87;37.79;102366.84;8255941;28;19924;-82
2022/03/26 04:24:56;;;;;;;;;;;9.40;35.60;;;7.78;37.56;102353.16;8276177;28;20015;-82
2022/03/26 04:29:18;;;;;;;;;;;9.50;35.70;;;7.64;37.66;102340.38;8265083;28;20012;-82
2022/03/26 04:33:40;;;;;;;;;;;9.50;35.80;;;7.69;37.69;102357.63;8258661;28;20298;-82
2022/03/26 04:38:02;;;;;;;;;;;9.40;35.80;;;7.80;38.03;102367.84;8278906;28;20445;-83
2022/03/26 04:42:24;;;;;;;;;;;9.40;35.90;;;7.75;37.62;102374.88;8284495;28;20417;-82
2022/03/26 04:46:45;;;;;;;;;;;9.40;35.90;;;7.58;38.09;102356.94;8272737;28;20009;-82
2022/03/26 04:51:07;;;;;;;;;;;9.30;35.90;;;7.61;38.07;102358.63;8283955;28;20008;-82
2022/03/26 04:55:29;;;;;;;;;;;9.30;36.00;;;7.53;37.92;102343.16;8278195;28;19928;-82
2022/03/26 04:59:51;;;;;;;;;;;9.30;36.30;;;7.62;38.40;102362.97;8249925;28;20445;-82
2022/03/26 05:04:14;;;;;;;;;;;9.30;36.30;;;7.65;38.09;102368.13;8261226;28;20011;-82
2022/03/26 05:08:36;;;;;;;;;;;9.30;36.30;;;7.51;38.12;102340.59;8270600;28;20008;-82
2022/03/26 05:12:58;;;;;;;;;;;9.30;36.30;;;7.56;38.17;102352.66;8284524;28;19940;-82
2022/03/26 05:17:21;;;;;;;;;;;9.40;36.40;;;7.66;37.84;102380.22;8264842;28;20437;-82
2022/03/26 05:21:42;;;;;;;;;;;9.40;36.80;;;7.67;38.45;102377.59;8275541;28;20334;-82
2022/03/26 05:26:04;;;;;;;;;;;9.40;36.90;;;7.64;38.04;102368.97;8281861;28;20516;-82
2022/03/26 05:30:26;;;;;;;;;;;9.40;37.30;;;7.68;38.30;102368.91;8262251;28;20020;-82
2022/03/26 05:34:48;;;;;;;;;;;9.40;37.10;;;7.87;38.54;102387.66;8250561;28;19928;-82
2022/03/26 05:39:10;;;;;;;;;;;9.40;38.80;;;7.65;38.40;102350.78;8281462;28;19999;-82
2022/03/26 05:43:31;;;;;;;;;;;9.50;37.50;;;8.00;38.32;102385.72;8261986;28;20009;-82
2022/03/26 05:48:00;;;;;;;;;;;9.60;37.50;;;8.03;38.35;102384.81;8269495;28;20000;-82
2022/03/26 05:52:21;;;;;;;;;;;9.70;37.30;;;8.10;38.39;102386.38;8266685;28;20445;-82
2022/03/26 05:56:51;;;;;;;;;;;9.60;37.10;;;8.01;38.29;102376.16;8276960;28;20020;-82
2022/03/26 06:01:13;;;;;;;;;;;9.70;37.10;;;8.16;38.79;102381.09;8267525;28;19924;-82
2022/03/26 06:05:35;;;;;;;;;;;9.80;37.10;;;8.13;38.50;102370.75;8277423;28;20016;-82
2022/03/26 06:09:57;;;;;;;;;;;9.90;37.10;;;8.26;38.41;102379.16;8267953;28;20093;-82
2022/03/26 06:14:18;;;;;;;;;;;9.90;37.20;;;8.23;38.42;102372.28;8265323;28;20405;-82
2022/03/26 06:18:41;;;;;;;;;;;10.00;38.00;;;8.25;38.50;102360.09;8264029;28;20430;-82
2022/03/26 06:23:03;;;;;;;;;;;10.00;37.60;;;8.33;38.81;102363.41;8262150;28;19928;-82
2022/03/26 06:27:25;;;;;;;;;;;10.10;37.70;;;8.46;38.71;102368.41;8257847;28;20017;-82
2022/03/26 06:31:47;;;;;;;;;;;10.20;37.60;;;8.63;39.09;102385.41;8275455;28;20000;-83
2022/03/26 06:36:09;;;;;;;;;;;10.30;38.00;;;8.64;38.80;102362.81;8267686;28;19935;-82
2022/03/26 06:40:31;;;;;;;;;;;10.40;37.80;;;8.81;38.62;102376.34;8266525;28;19934;-82
2022/03/26 06:44:59;;;;;;;;;;;10.50;38.00;;;8.95;39.13;102356.97;8266246;28;20276;-83
2022/03/26 06:49:21;;;;;;;;;;;10.60;38.10;;;9.16;39.21;102366.06;8240950;28;19924;-85
2022/03/26 06:53:42;;;;;;;;;;;10.80;38.20;;;9.19;39.27;102343.38;8252647;28;19928;-82
2022/03/26 06:58:04;;;;;;;;;;;10.90;37.90;;;9.32;39.33;102351.78;8240125;28;19928;-83
2022/03/26 07:02:27;;;;;;;;;;;11.10;37.80;;;9.30;39.02;102327.47;8241508;28;19924;-83
2022/03/26 07:06:49;;;;;;;;;;;11.20;37.90;;;9.60;39.31;102362.38;8239280;28;19925;-80
2022/03/26 07:11:10;;;;;;;;;;;11.40;38.10;;;9.66;39.24;102354.38;8254503;28;19924;-85
2022/03/26 07:15:32;;;;;;;;;;;11.50;38.40;;;9.84;39.41;102352.22;8229890;28;20346;-84
2022/03/26 07:19:54;;;;;;;;;;;11.60;38.40;;;10.10;39.16;102375.00;8240164;28;19921;-86
2022/03/26 07:24:16;;;;;;;;;;;11.80;38.60;;;10.13;39.12;102362.75;8240430;28;19922;-83
2022/03/26 07:28:38;;;;;;;;;;;12.00;38.30;;;10.36;39.69;102366.50;8243695;28;20256;-82
2022/03/26 07:33:00;;;;;;;;;;;12.20;38.20;;;10.57;39.22;102380.72;8242399;28;20478;-83
2022/03/26 07:37:22;;;;;;;;;;;12.20;38.30;;;10.58;39.19;102349.31;8243315;28;20020;-83
2022/03/26 07:41:44;;;;;;;;;;;12.40;39.00;;;10.91;39.58;102366.66;8241808;28;20445;-84
2022/03/26 07:46:07;;;;;;;;;;;12.60;38.70;;;11.10;39.41;102366.94;8240087;28;20009;-83
2022/03/26 07:50:29;;;;;;;;;;;12.80;38.20;;;11.30;39.32;102359.34;8255496;28;19924;-84
2022/03/26 07:54:51;;;;;;;;;;;13.00;38.70;;;11.42;39.38;102338.03;8258982;28;19921;-85
2022/03/26 07:59:13;;;;;;;;;;;13.20;39.10;;;11.78;39.39;102350.78;8277639;28;20005;-83
2022/03/26 08:03:34;;;;;;;;;;;13.40;38.60;;;11.98;39.48;102330.94;8280999;28;20007;-82
2022/03/26 08:07:56;;;;;;;;;;;13.40;39.30;;;12.39;39.67;102364.38;8293339;28;20008;-83
2022/03/26 08:12:18;;;;;;;;;;;14.00;38.60;;;12.59;39.32;102347.91;8296706;28;20008;-84
2022/03/26 08:16:40;;;;;;;;;;;14.30;38.80;;;12.84;39.35;102352.22;8291558;28;19935;-83
2022/03/26 08:21:02;;;;;;;;;;;14.60;39.20;;;13.08;39.46;102350.41;8288252;28;19932;-84
2022/03/26 08:30:07;;;;;;;;;;;15.00;38.60;;;13.40;39.30;102324.69;8280048;28;20421;-85
2022/03/26 08:34:29;;;;;;;;;;;15.30;38.70;;;13.67;39.59;102328.78;8286011;28;20059;-83
2022/03/26 08:38:51;;;;;;;;;;;15.60;38.70;;;13.94;39.69;102349.53;8300876;28;20007;-82
2022/03/26 08:43:13;;;;;;;;;;;15.70;38.30;;;14.16;39.33;102350.28;8279038;28;19932;-86
2022/03/26 08:47:35;;;;;;;;;;;16.00;38.20;;;14.44;39.62;102356.91;8231672;28;20440;-85
2022/03/26 08:51:57;;;;;;;;;;;16.20;38.40;;;14.74;39.55;102369.63;8246128;28;19917;-85
2022/03/26 08:56:19;;;;;;;;;;;16.50;38.20;;;14.97;39.36;102373.81;8240471;28;19953;-86
2022/03/26 09:00:40;;;;;;;;;;;16.70;38.20;;;15.04;39.61;102359.41;8235292;28;19928;-84
2022/03/26 09:05:02;;;;;;;;;;;16.80;37.90;;;14.88;39.26;102317.25;8246225;28;19917;-83
2022/03/26 09:09:24;;;;;;;;;;;17.00;37.90;;;15.34;39.21;102367.66;8247701;28;20398;-85
2022/03/26 09:13:46;;;;;;;;;;;17.30;37.90;;;15.59;39.51;102380.44;8248802;28;19944;-83
2022/03/26 09:18:08;;;;;;;;;;;17.30;37.70;;;15.67;39.10;102367.75;8266552;28;20358;-83
2022/03/26 09:22:30;;;;;;;;;;;17.40;37.60;;;15.78;39.27;102361.97;8263501;28;20012;-87
2022/03/26 09:26:52;;;;;;;;;;;17.60;37.60;;;15.92;39.16;102379.69;8261348;28;20012;-87
2022/03/26 09:31:14;;;;;;;;;;;17.60;37.40;;;15.94;39.05;102351.50;8254245;28;19918;-87
2022/03/26 09:35:36;;;;;;;;;;;17.70;37.80;;;16.09;39.15;102365.63;8244657;28;19928;-85
2022/03/26 09:39:58;;;;;;;;;;;17.90;37.40;;;16.06;39.13;102339.44;8249818;28;19921;-90
2022/03/26 09:44:21;;;;;;;;;;;17.90;37.40;;;16.27;39.21;102359.41;8254651;28;20353;-91
2022/03/26 09:48:43;;;;;;;;;;;17.90;37.30;;;16.23;39.11;102342.06;8247209;28;19932;-91
2022/03/26 09:53:05;;;;;;;;;;;18.10;37.40;;;16.37;38.91;102354.50;8250631;28;19917;-88
2022/03/26 09:57:27;;;;;;;;;;;18.10;37.70;;;16.36;39.06;102347.50;8255751;28;20001;-85
2022/03/26 10:01:49;;;;;;;;;;;18.10;37.60;;;16.36;38.89;102348.38;8246347;28;20020;-86
2022/03/26 10:06:11;;;;;;;;;;;18.10;37.20;;;16.39;39.14;102336.81;8282312;28;20469;-86
2022/03/26 10:10:42;;;;;;;;;;;18.10;37.30;;;16.47;38.89;102347.81;8264284;28;20020;-79
2022/03/26 10:15:04;;;;;;;;;;;18.10;37.40;;;16.46;38.96;102342.59;8277698;28;19927;-85
2022/03/26 10:19:26;;;;;;;;;;;18.10;37.30;;;16.53;39.03;102344.84;8240471;28;20005;-90
2022/03/26 10:23:49;;;;;;;;;;;18.20;37.80;;;16.47;38.91;102353.09;8248374;28;19936;-88
2022/03/26 10:28:20;;;;;;;;;;;18.20;38.10;;;16.52;39.02;102360.72;8244519;28;19917;-86
2022/03/26 10:32:45;;;;;;;;;;;18.10;37.50;;;16.49;39.15;102353.84;8255697;28;19922;-85
2022/03/26 10:37:07;;;;;;;;;;;18.10;37.80;;;16.44;39.01;102350.59;8250017;28;19928;-90
2022/03/26 10:41:31;;;;;;;;;;;18.10;37.40;;;16.29;39.00;102331.19;8263305;28;19925;-86
2022/03/26 10:45:59;;;;;;;;;;;18.00;37.50;;;16.45;39.01;102354.94;8262220;28;19928;-87
2022/03/26 10:50:21;;;;;;;;;;;18.10;37.70;;;16.43;38.84;102345.41;8258116;28;19927;-86
2022/03/26 10:54:43;;;;;;;;;;;18.10;37.90;;;16.35;39.17;102338.75;8242470;28;19932;-85
2022/03/26 10:59:05;;;;;;;;;;;17.90;37.90;;;16.49;38.79;102364.38;8247817;28;19928;-86
2022/03/26 11:03:26;;;;;;;;;;;18.10;38.30;;;16.43;38.95;102355.97;8251723;28;20309;-86
2022/03/26 11:07:50;;;;;;;;;;;18.00;37.90;;;16.30;39.09;102343.41;8238095;28;19926;-86
2022/03/26 11:12:12;;;;;;;;;;;18.00;37.80;;;16.40;38.90;102364.03;8257826;28;19951;-87
2022/03/26 11:16:40;;;;;;;;;;;17.90;37.70;;;16.43;39.13;102356.81;8241908;28;19931;-87
2022/03/26 11:21:29;;;;;;;;;;;17.90;37.70;;;16.33;39.28;102342.41;8249444;28;19925;-86
2022/03/26 11:26:06;;;;;;;;;;;17.90;38.60;;;16.41;38.91;102355.19;8247883;28;19921;-85
2022/03/26 11:30:51;;;;;;;;;;;17.90;38.80;;;16.44;39.11;102349.75;8262168;28;20012;-86
2022/03/26 11:35:15;;;;;;;;;;;17.90;38.30;;;16.33;39.28;102342.41;8288603;28;19928;-89
2022/03/26 11:39:45;;;;;;;;;;;17.60;38.70;;;16.37;39.11;102349.22;8281383;28;20381;-87
2022/03/26 11:44:07;;;;;;;;;;;17.90;38.50;;;16.33;39.11;102337.97;8255473;28;20360;-86
2022/03/26 11:53:34;;;;;;;;;;;17.90;38.50;;;16.42;39.29;102346.31;8276136;28;20015;-86
2022/03/26 11:58:13;;;;;;;;;;;17.90;38.70;;;16.44;39.09;102339.19;8252762;28;19927;-88
2022/03/26 12:02:35;;;;;;;;;;;18.00;38.20;;;16.49;39.03;102339.81;8261620;28;19972;-90
2022/03/26 12:06:58;;;;;;;;;;;18.00;37.90;;;16.58;39.53;102347.22;8257594;28;20000;-83
2022/03/26 12:11:21;;;;;;;;;;;18.00;38.20;;;16.54;39.14;102321.94;8248806;28;19923;-85
2022/03/26 12:15:58;;;;;;;;;;;17.90;38.80;;;16.68;39.43;102350.19;8265732;28;19935;-85
2022/03/26 12:20:40;;;;;;;;;;;18.10;38.10;;;16.60;39.28;102335.63;8270949;28;20016;-83
2022/03/26 12:25:06;;;;;;;;;;;18.10;38.50;;;16.71;38.93;102348.22;8248773;28;20382;-84
2022/03/26 12:29:28;;;;;;;;;;;18.10;38.30;;;16.64;39.32;102346.88;8268414;28;20008;-84
2022/03/26 12:33:52;;;;;;;;;;;18.10;38.20;;;16.67;39.10;102344.06;8267859;28;20814;-82
2022/03/26 12:38:15;;;;;;;;;;;18.10;38.50;;;16.72;39.31;102349.09;8254150;28;20354;-84
2022/03/26 12:42:37;;;;;;;;;;;18.00;38.20;;;16.74;39.38;102350.72;8273906;28;19917;-83
2022/03/26 12:46:58;;;;;;;;;;;18.00;38.30;;;16.66;39.48;102333.59;8243306;28;19925;-83
2022/03/26 12:51:22;;;;;;;;;;;18.10;39.10;;;16.69;39.38;102358.03;8246879;28;19921;-83
2022/03/26 12:55:57;;;;;;;;;;;18.10;38.60;;;16.60;39.52;102340.06;8244696;28;19929;-83
2022/03/26 13:00:26;;;;;;;;;;;18.10;38.90;;;16.63;39.29;102355.72;8262662;28;20012;-84
2022/03/26 13:04:52;;;;;;;;;;;18.10;39.20;;;16.62;39.42;102367.22;8260254;28;19917;-84
2022/03/26 13:09:14;;;;;;;;;;;18.10;38.90;;;16.59;39.27;102367.38;8251266;28;19917;-84
2022/03/26 13:13:59;;;;;;;;;;;18.00;38.90;;;16.45;39.76;102356.75;8241364;28;20012;-83
2022/03/26 13:18:21;;;;;;;;;;;18.00;40.10;;;16.37;39.38;102367.69;8243740;28;19929;-83
2022/03/26 13:22:43;;;;;;;;;;;17.90;39.20;;;16.36;39.62;102377.38;8242079;28;21531;-85
2022/03/26 13:27:16;;;;;;;;;;;17.90;39.40;;;16.34;39.74;102386.31;8244999;28;20016;-81
2022/03/26 13:31:47;;;;;;;;;;;17.80;39.00;;;16.24;39.74;102385.94;8242855;28;20306;-80
2022/03/26 13:36:09;;;;;;;;;;;17.70;39.00;;;16.13;39.79;102391.78;8247450;28;19932;-82
2022/03/26 13:40:32;;;;;;;;;;;17.60;40.40;;;16.00;39.46;102397.75;8251506;28;20375;-82
2022/03/26 13:44:57;;;;;;;;;;;17.50;39.80;;;15.88;39.57;102394.81;8280790;28;20011;-80
2022/03/26 13:49:24;;;;;;;;;;;17.40;41.30;;;15.86;39.86;102407.22;8257733;28;20007;-82
2022/03/26 13:53:46;;;;;;;;;;;17.30;40.00;;;15.78;39.99;102406.75;8283929;28;20012;-82
2022/03/26 13:58:11;;;;;;;;;;;17.40;39.60;;;15.76;39.99;102407.75;8271999;28;19921;-82
2022/03/26 14:02:36;;;;;;;;;;;17.20;39.80;;;15.70;39.74;102406.28;8257755;28;20030;-83
2022/03/26 14:06:58;;;;;;;;;;;17.20;39.70;;;15.47;39.91;102379.28;8232538;28;20005;-83
2022/03/26 14:11:20;;;;;;;;;;;17.00;40.00;;;15.51;39.72;102387.03;8256295;28;20382;-84
2022/03/26 14:15:44;;;;;;;;;;;17.00;39.90;;;15.31;39.77;102357.28;8260970;28;20284;-83
2022/03/26 14:20:09;;;;;;;;;;;17.00;39.70;;;15.45;40.15;102381.13;8251164;28;19924;-83
2022/03/26 14:24:33;;;;;;;;;;;16.90;39.70;;;15.45;39.97;102380.28;8259701;28;19996;-83
2022/03/26 14:28:54;;;;;;;;;;;16.90;39.30;;;15.48;39.78;102386.25;8271097;28;20458;-82
2022/03/26 14:33:17;;;;;;;;;;;17.10;39.10;;;15.22;39.92;102352.44;8252222;28;20365;-82
2022/03/26 14:37:39;;;;;;;;;;;16.90;39.80;;;15.23;39.90;102362.91;8236716;28;19928;-82
2022/03/26 14:42:01;;;;;;;;;;;16.80;40.00;;;15.22;39.98;102368.22;8244266;28;19932;-83
2022/03/26 14:46:22;;;;;;;;;;;16.80;39.30;;;15.04;39.93;102348.91;8225347;28;20008;-83
2022/03/26 14:50:48;;;;;;;;;;;16.80;40.40;;;15.27;39.77;102389.91;8249524;28;20004;-83
2022/03/26 14:55:11;;;;;;;;;;;16.60;41.00;;;14.84;40.20;102323.56;8224901;28;19922;-83
2022/03/26 14:59:33;;;;;;;;;;;16.70;40.20;;;15.30;40.19;102402.91;8239147;28;19918;-84
2022/03/26 15:03:55;;;;;;;;;;;16.50;40.60;;;15.31;39.96;102417.81;8251572;28;19918;-84
2022/03/26 15:08:17;;;;;;;;;;;16.60;39.90;;;15.10;40.17;102385.47;8235192;28;19924;-83
2022/03/26 15:12:39;;;;;;;;;;;16.70;39.50;;;15.20;39.89;102412.19;8236247;28;19921;-84
2022/03/26 15:17:02;;;;;;;;;;;16.60;41.30;;;15.11;40.19;102424.00;8265343;28;19929;-84
2022/03/26 15:21:24;;;;;;;;;;;16.60;40.00;;;15.12;40.53;102423.09;8264960;28;19928;-84
2022/03/26 15:25:46;;;;;;;;;;;16.50;40.10;;;15.02;40.28;102419.19;8261539;28;19928;-83
2022/03/26 15:30:08;;;;;;;;;;;16.50;39.60;;;14.95;40.40;102407.22;8261080;28;19927;-83
2022/03/26 15:34:29;;;;;;;;;;;16.50;40.40;;;14.98;40.31;102407.94;8259915;28;19928;-83
2022/03/26 15:38:51;;;;;;;;;;;16.70;40.00;;;14.97;40.35;102419.38;8274183;28;19925;-83
2022/03/26 15:43:13;;;;;;;;;;;16.70;39.80;;;14.91;40.75;102414.41;8258920;28;19928;-84
2022/03/26 15:47:35;;;;;;;;;;;16.30;39.80;;;14.93;40.58;102428.38;8266762;28;19921;-84
2022/03/26 15:51:56;;;;;;;;;;;16.30;41.10;;;14.80;40.04;102408.81;8259790;28;19925;-83
2022/03/26 15:56:18;;;;;;;;;;;16.30;40.70;;;14.81;40.52;102421.88;8270458;28;19932;-84
2022/03/26 16:00:41;;;;;;;;;;;16.40;40.20;;;14.85;40.55;102434.88;8241343;28;19922;-85
2022/03/26 16:05:03;;;;;;;;;;;16.30;40.70;;;14.77;40.62;102435.22;8258137;28;20362;-85
2022/03/26 16:09:25;;;;;;;;;;;16.20;40.70;;;14.79;40.49;102444.75;8267700;28;19940;-85
2022/03/26 16:13:47;;;;;;;;;;;16.20;39.90;;;14.75;40.25;102437.09;8257521;28;19921;-85
2022/03/26 16:18:09;;;;;;;;;;;16.10;39.60;;;14.62;40.91;102423.63;8263343;28;19925;-82
2022/03/26 16:22:31;;;;;;;;;;;16.10;40.10;;;14.78;40.55;102452.72;8278489;28;20043;-82
2022/03/26 16:26:53;;;;;;;;;;;16.20;40.10;;;14.70;40.67;102447.81;8258456;28;19922;-82
2022/03/26 16:31:15;;;;;;;;;;;16.10;40.50;;;14.71;40.56;102446.03;8268465;28;19921;-82
2022/03/26 16:35:36;;;;;;;;;;;16.10;40.30;;;14.69;40.41;102448.75;8269741;28;19926;-82
2022/03/26 16:39:58;;;;;;;;;;;16.10;40.20;;;14.75;40.47;102458.13;8240508;28;19935;-82
2022/03/26 16:44:20;;;;;;;;;;;16.10;40.40;;;14.66;40.67;102437.47;8275473;28;20657;-82
2022/03/26 16:48:42;;;;;;;;;;;16.10;40.20;;;14.65;40.48;102441.91;8255498;28;19952;-83
2022/03/26 16:53:04;;;;;;;;;;;16.10;40.10;;;14.67;40.52;102455.00;8270149;28;19918;-83
2022/03/26 16:57:26;;;;;;;;;;;16.10;40.30;;;14.63;40.63;102459.50;8246871;28;20390;-82
2022/03/26 17:01:47;;;;;;;;;;;16.10;40.40;;;14.63;40.91;102461.28;8246751;28;19931;-82
2022/03/26 17:06:09;;;;;;;;;;;16.00;41.00;;;14.47;40.65;102448.78;8252706;28;19921;-83
2022/03/26 17:10:31;;;;;;;;;;;16.00;41.30;;;14.46;40.73;102457.59;8269678;28;19925;-83
2022/03/26 17:14:52;;;;;;;;;;;16.00;41.70;;;14.53;40.71;102477.47;8242240;28;19929;-83
2022/03/26 17:19:14;;;;;;;;;;;15.90;40.40;;;14.42;40.61;102474.44;8258944;28;19921;-83
2022/03/26 17:23:36;;;;;;;;;;;15.90;40.40;;;14.46;40.72;102483.88;8273625;28;19928;-84
2022/03/26 17:27:57;;;;;;;;;;;15.90;41.10;;;14.37;41.14;102473.78;8259458;28;19922;-84
2022/03/26 17:32:19;;;;;;;;;;;15.90;40.50;;;14.43;40.95;102494.53;8271760;28;19921;-83
2022/03/26 17:36:41;;;;;;;;;;;15.90;40.80;;;14.46;41.00;102510.16;8245844;28;20378;-82
2022/03/26 17:41:06;;;;;;;;;;;15.80;41.00;;;14.40;41.05;102505.19;8271609;28;19926;-84
2022/03/26 17:45:28;;;;;;;;;;;15.80;40.00;;;14.39;40.73;102501.72;8270280;28;19936;-84
2022/03/26 17:49:50;;;;;;;;;;;15.80;40.20;;;14.43;40.91;102510.31;8259163;28;20309;-83
2022/03/26 17:54:15;;;;;;;;;;;15.80;40.00;;;14.32;40.86;102483.63;8274113;28;19927;-84
2022/03/26 17:58:36;;;;;;;;;;;15.80;39.80;;;14.44;40.86;102508.53;8254328;28;19940;-84
2022/03/26 18:02:58;;;;;;;;;;;15.90;39.80;;;14.42;40.69;102518.25;8254121;28;19922;-83
2022/03/26 18:07:20;;;;;;;;;;;15.90;39.70;;;14.44;40.92;102517.25;8266909;28;19921;-82
2022/03/26 18:11:42;;;;;;;;;;;15.90;39.70;;;14.44;40.85;102524.31;8253285;28;20404;-82
2022/03/26 18:16:06;;;;;;;;;;;15.90;39.60;;;14.45;40.75;102540.03;8274153;28;20341;-81
2022/03/26 18:20:28;;;;;;;;;;;15.90;39.50;;;14.43;40.94;102541.00;8281720;28;20400;-83
2022/03/26 18:24:50;;;;;;;;;;;15.80;39.40;;;14.32;41.07;102521.28;8270209;28;19925;-84
2022/03/26 18:29:14;;;;;;;;;;;15.70;39.30;;;14.32;40.97;102539.66;8275537;28;21322;-84
2022/03/26 18:33:36;;;;;;;;;;;15.80;39.30;;;14.29;41.06;102539.81;8270347;28;19928;-84
2022/03/26 18:37:58;;;;;;;;;;;15.60;39.20;;;14.30;41.26;102551.16;8261406;28;20398;-84
2022/03/26 18:42:19;;;;;;;;;;;15.70;39.20;;;14.30;40.83;102556.41;8267111;28;20615;-84
2022/03/26 18:46:41;;;;;;;;;;;15.70;39.20;;;14.23;40.73;102554.94;8251733;28;19940;-84
2022/03/26 18:51:05;;;;;;;;;;;15.70;39.20;;;14.22;40.91;102561.13;8268236;28;20301;-83
2022/03/26 18:55:27;;;;;;;;;;;15.60;39.10;;;14.13;41.01;102557.97;8259719;28;19932;-84
2022/03/26 18:59:49;;;;;;;;;;;15.60;39.00;;;14.09;41.19;102571.28;8260711;28;19927;-84
2022/03/26 19:04:11;;;;;;;;;;;15.60;39.00;;;14.07;40.96;102575.75;8264903;28;19924;-84
2022/03/26 19:08:32;;;;;;;;;;;15.50;39.00;;;13.95;40.97;102571.84;8267812;28;19925;-84
2022/03/26 19:12:54;;;;;;;;;;;15.40;39.00;;;13.86;41.02;102573.06;8261239;28;19963;-84
2022/03/26 19:17:19;;;;;;;;;;;15.30;38.90;;;13.86;40.99;102585.34;8244669;28;19930;-84
2022/03/26 19:21:40;;;;;;;;;;;15.30;38.90;;;13.70;41.09;102572.81;8260168;28;19940;-84
2022/03/26 19:26:02;;;;;;;;;;;15.20;38.90;;;13.72;41.13;102599.88;8270074;28;20159;-84
2022/03/26 19:30:26;;;;;;;;;;;15.20;38.90;;;13.57;41.07;102595.19;8268624;28;19923;-84
2022/03/26 19:34:48;;;;;;;;;;;15.00;38.90;;;13.41;40.97;102594.91;8249527;28;20297;-84
2022/03/26 19:39:13;;;;;;;;;;;15.00;38.90;;;13.43;41.08;102615.84;8275145;28;20362;-84
2022/03/26 19:43:36;;;;;;;;;;;14.80;38.80;;;13.14;41.26;102593.25;8276069;28;20017;-83
2022/03/26 19:47:58;;;;;;;;;;;14.80;38.80;;;13.30;41.06;102632.94;8242156;28;19923;-85
2022/03/26 19:52:22;;;;;;;;;;;14.70;38.80;;;13.09;41.06;102608.31;8267902;28;19957;-83
2022/03/26 19:56:44;;;;;;;;;;;14.60;38.90;;;13.09;40.92;102627.50;8261632;28;19928;-83
2022/03/26 20:01:09;;;;;;;;;;;14.50;38.90;;;12.89;41.12;102609.00;8254841;28;19928;-84
2022/03/26 20:05:30;;;;;;;;;;;14.80;39.40;;;12.81;41.17;102612.75;8252643;28;19925;-84
2022/03/26 20:09:52;;;;;;;;;;;14.40;38.90;;;12.78;41.14;102623.34;8269246;28;20396;-84
2022/03/26 20:14:17;;;;;;;;;;;14.30;38.90;;;12.71;41.17;102621.81;8272476;28;20281;-83